Time;durP1;ratioP1;P1;durP2;ratioP2;P2;SDS_P1;SDS_P2;PMS_P1;PMS_P2;Temp;Humidity;BMP_temperature;BMP_pressure;BME280_temperature;BME280_humidity;BME280_pressure;Samples;Min_cycle;Max_cycle;Signal;HPM_P1;HPM_P2
2021/09/16 00:01:29;;;;;;;;;8.33;8.00;;;;;;;;4995178;28;50930;-60
2021/09/16 00:03:54;;;;;;;;;10.67;10.67;;;;;;;;4993112;28;50996;-60
2021/09/16 00:06:19;;;;;;;;;12.67;12.33;;;;;;;;4991393;28;51124;-60
2021/09/16 00:08:44;;;;;;;;;10.33;10.33;;;;;;;;4992188;28;51170;-60
2021/09/16 00:11:10;;;;;;;;;11.33;11.33;;;;;;;;4991515;28;51415;-60
2021/09/16 00:13:35;;;;;;;;;12.00;11.00;;;;;;;;4992606;28;51888;-60
2021/09/16 00:16:00;;;;;;;;;11.33;11.33;;;;;;;;4991145;28;51111;-60
2021/09/16 00:18:25;;;;;;;;;10.33;10.33;;;;;;;;4982106;28;51161;-60
2021/09/16 00:20:51;;;;;;;;;11.00;11.00;;;;;;;;4993406;28;51035;-61
2021/09/16 00:23:16;;;;;;;;;12.00;11.67;;;;;;;;4992678;28;51710;-60
2021/09/16 00:25:42;;;;;;;;;13.00;13.00;;;;;;;;4992325;28;51095;-60
2021/09/16 00:28:07;;;;;;;;;12.00;11.67;;;;;;;;4991575;28;51030;-60
2021/09/16 00:30:32;;;;;;;;;13.33;13.00;;;;;;;;4992773;28;51060;-60
2021/09/16 00:32:57;;;;;;;;;13.67;12.33;;;;;;;;4992274;28;51580;-60
2021/09/16 00:35:23;;;;;;;;;11.67;11.00;;;;;;;;4991778;28;51213;-60
2021/09/16 00:37:48;;;;;;;;;12.67;10.33;;;;;;;;4991507;28;51592;-58
2021/09/16 00:40:14;;;;;;;;;14.67;14.33;;;;;;;;4991825;28;51147;-60
2021/09/16 00:42:39;;;;;;;;;15.33;14.00;;;;;;;;4991991;28;51904;-60
2021/09/16 00:45:04;;;;;;;;;12.00;12.00;;;;;;;;4992457;28;52273;-60
2021/09/16 00:47:29;;;;;;;;;12.00;12.00;;;;;;;;4991518;28;51268;-61
2021/09/16 00:49:55;;;;;;;;;11.33;11.33;;;;;;;;4991315;28;51844;-61
2021/09/16 00:52:21;;;;;;;;;12.67;12.67;;;;;;;;4991696;28;50950;-60
2021/09/16 00:54:46;;;;;;;;;11.00;11.00;;;;;;;;4991631;28;50991;-60
2021/09/16 00:57:14;;;;;;;;;13.00;12.67;;;;;;;;4991362;28;50922;-60
2021/09/16 00:59:40;;;;;;;;;12.67;12.67;;;;;;;;4992979;28;50842;-61
2021/09/16 01:02:05;;;;;;;;;15.33;14.00;;;;;;;;4991558;28;51702;-60
2021/09/16 01:04:31;;;;;;;;;13.00;13.00;;;;;;;;4990561;28;51070;-60
2021/09/16 01:06:57;;;;;;;;;11.00;11.00;;;;;;;;4990175;28;51127;-60
2021/09/16 01:09:23;;;;;;;;;13.67;13.67;;;;;;;;4992791;28;51113;-61
2021/09/16 01:11:48;;;;;;;;;14.67;14.67;;;;;;;;4991180;28;51837;-60
2021/09/16 01:14:26;;;;;;;;;14.00;13.00;;;;;;;;4991075;28;51018;-61
2021/09/16 01:16:52;;;;;;;;;11.00;11.00;;;;;;;;4990909;28;50965;-62
2021/09/16 01:19:18;;;;;;;;;14.67;13.33;;;;;;;;4992518;28;50953;-61
2021/09/16 01:21:44;;;;;;;;;14.67;13.67;;;;;;;;4975712;28;53584;-62
2021/09/16 01:24:09;;;;;;;;;13.67;13.00;;;;;;;;4995239;28;51127;-61
2021/09/16 01:26:34;;;;;;;;;15.67;14.00;;;;;;;;4994523;28;51037;-60
2021/09/16 01:29:00;;;;;;;;;14.67;14.33;;;;;;;;4994877;28;51080;-61
2021/09/16 01:31:35;;;;;;;;;15.33;15.00;;;;;;;;4994119;28;52442;-61
2021/09/16 01:34:02;;;;;;;;;15.00;13.67;;;;;;;;4993583;28;51003;-61
2021/09/16 01:36:27;;;;;;;;;16.67;14.33;;;;;;;;4994494;28;51167;-61
2021/09/16 01:38:52;;;;;;;;;15.00;14.00;;;;;;;;4996152;28;51136;-61
2021/09/16 01:41:17;;;;;;;;;15.00;13.00;;;;;;;;4994340;28;51308;-60
2021/09/16 01:43:42;;;;;;;;;14.33;12.67;;;;;;;;4995085;28;51032;-61
2021/09/16 01:46:08;;;;;;;;;11.67;11.67;;;;;;;;4976841;28;51306;-61
2021/09/16 01:48:33;;;;;;;;;13.00;13.00;;;;;;;;4994394;28;51332;-61
2021/09/16 01:50:58;;;;;;;;;12.67;12.67;;;;;;;;4995336;28;51126;-62
2021/09/16 01:53:23;;;;;;;;;16.00;15.00;;;;;;;;4994032;28;51075;-60
2021/09/16 01:55:48;;;;;;;;;13.33;13.33;;;;;;;;4993733;28;50965;-61
2021/09/16 01:58:14;;;;;;;;;15.67;14.00;;;;;;;;4995326;28;50997;-60
2021/09/16 02:00:39;;;;;;;;;15.25;14.50;;;;;;;;4994558;28;51657;-61
2021/09/16 02:03:04;;;;;;;;;11.00;11.00;;;;;;;;4975136;28;51083;-60
2021/09/16 02:05:29;;;;;;;;;12.00;12.00;;;;;;;;4993069;28;51159;-61
2021/09/16 02:07:54;;;;;;;;;12.33;12.33;;;;;;;;4995316;28;51227;-61
2021/09/16 02:10:20;;;;;;;;;13.67;12.33;;;;;;;;4994954;28;51840;-61
2021/09/16 02:12:45;;;;;;;;;12.00;11.00;;;;;;;;4992525;28;51179;-61
2021/09/16 02:15:10;;;;;;;;;13.00;12.67;;;;;;;;4994284;28;51381;-60
2021/09/16 02:17:35;;;;;;;;;11.00;10.33;;;;;;;;4994299;28;50933;-61
2021/09/16 02:20:00;;;;;;;;;13.67;13.67;;;;;;;;4994752;28;50894;-61
2021/09/16 02:22:26;;;;;;;;;12.00;12.00;;;;;;;;4993412;28;51190;-62
2021/09/16 02:24:51;;;;;;;;;13.00;13.00;;;;;;;;4993977;28;50796;-61
2021/09/16 02:27:16;;;;;;;;;11.67;11.67;;;;;;;;4993806;28;51168;-61
2021/09/16 02:29:42;;;;;;;;;9.00;9.00;;;;;;;;4994140;28;51025;-60
2021/09/16 02:32:08;;;;;;;;;14.33;14.00;;;;;;;;4993874;28;50952;-60
2021/09/16 02:34:34;;;;;;;;;13.00;12.00;;;;;;;;4993974;28;51054;-60
2021/09/16 02:36:59;;;;;;;;;11.33;10.33;;;;;;;;4992635;28;51041;-61
2021/09/16 02:39:24;;;;;;;;;11.33;11.33;;;;;;;;4986926;28;53016;-61
2021/09/16 02:41:49;;;;;;;;;11.00;11.00;;;;;;;;4994001;28;50948;-60
2021/09/16 02:44:14;;;;;;;;;12.67;11.67;;;;;;;;4994150;28;51267;-60
2021/09/16 02:46:40;;;;;;;;;13.00;12.00;;;;;;;;4998781;28;51206;-61
2021/09/16 02:49:05;;;;;;;;;13.00;13.00;;;;;;;;4995067;28;51875;-61
2021/09/16 02:51:30;;;;;;;;;13.33;13.00;;;;;;;;4994156;28;50980;-61
2021/09/16 02:53:55;;;;;;;;;13.67;13.00;;;;;;;;4994261;28;51170;-61
2021/09/16 02:56:20;;;;;;;;;14.67;14.00;;;;;;;;4992851;28;51281;-61
2021/09/16 02:58:46;;;;;;;;;15.33;14.33;;;;;;;;4993155;28;51048;-61
2021/09/16 03:01:11;;;;;;;;;14.00;14.00;;;;;;;;4993749;28;51082;-60
2021/09/16 03:03:36;;;;;;;;;12.67;12.67;;;;;;;;5004076;28;50845;-60
2021/09/16 03:06:01;;;;;;;;;11.33;10.33;;;;;;;;4994460;28;51601;-60
2021/09/16 03:08:27;;;;;;;;;12.33;12.33;;;;;;;;4993008;28;51247;-60
2021/09/16 03:10:52;;;;;;;;;14.67;12.67;;;;;;;;4993494;28;51072;-60
2021/09/16 03:13:17;;;;;;;;;11.33;11.00;;;;;;;;4994208;28;50948;-60
2021/09/16 03:15:42;;;;;;;;;14.67;12.67;;;;;;;;4993240;28;51025;-60
2021/09/16 03:18:08;;;;;;;;;13.00;12.00;;;;;;;;4992811;28;51903;-60
2021/09/16 03:20:33;;;;;;;;;12.33;12.00;;;;;;;;4996338;28;51061;-59
2021/09/16 03:22:58;;;;;;;;;12.67;12.33;;;;;;;;4993935;28;51115;-60
2021/09/16 03:25:23;;;;;;;;;13.33;11.00;;;;;;;;4992956;28;51261;-60
2021/09/16 03:27:48;;;;;;;;;12.67;12.00;;;;;;;;4990241;28;51735;-60
2021/09/16 03:30:14;;;;;;;;;12.00;12.00;;;;;;;;4993665;28;50938;-64
2021/09/16 03:32:42;;;;;;;;;9.00;8.67;;;;;;;;4993265;28;51010;-60
2021/09/16 03:35:08;;;;;;;;;12.33;11.33;;;;;;;;4992933;28;51364;-60
2021/09/16 03:37:33;;;;;;;;;12.00;11.00;;;;;;;;4991913;28;52324;-60
2021/09/16 03:39:58;;;;;;;;;14.33;13.00;;;;;;;;4993324;28;50963;-59
2021/09/16 03:42:24;;;;;;;;;10.33;10.00;;;;;;;;4975510;28;51105;-60
2021/09/16 03:44:50;;;;;;;;;10.33;10.00;;;;;;;;4991436;28;51150;-60
2021/09/16 03:47:15;;;;;;;;;11.33;11.33;;;;;;;;4992724;28;51313;-60
2021/09/16 03:49:40;;;;;;;;;11.33;11.00;;;;;;;;4992513;28;51008;-59
2021/09/16 03:52:06;;;;;;;;;11.00;11.00;;;;;;;;4992694;28;51077;-60
2021/09/16 03:54:32;;;;;;;;;13.33;13.33;;;;;;;;4993337;28;51171;-60
2021/09/16 03:56:57;;;;;;;;;10.00;10.00;;;;;;;;4993057;28;51750;-60
2021/09/16 03:59:23;;;;;;;;;12.67;12.33;;;;;;;;4993182;28;51191;-60
2021/09/16 04:01:48;;;;;;;;;12.00;10.67;;;;;;;;4991397;28;51104;-64
2021/09/16 04:04:13;;;;;;;;;11.00;10.67;;;;;;;;4990689;28;51033;-59
2021/09/16 04:06:38;;;;;;;;;10.00;10.00;;;;;;;;4992265;28;51068;-60
2021/09/16 04:09:03;;;;;;;;;11.00;10.33;;;;;;;;4993140;28;51057;-60
2021/09/16 04:11:29;;;;;;;;;11.00;10.67;;;;;;;;4993635;28;50934;-60
2021/09/16 04:13:54;;;;;;;;;12.33;12.00;;;;;;;;4991492;28;51117;-60
2021/09/16 04:16:19;;;;;;;;;12.00;11.67;;;;;;;;4992351;28;51184;-60
2021/09/16 04:18:44;;;;;;;;;10.67;10.67;;;;;;;;4992964;28;51093;-60
2021/09/16 04:21:09;;;;;;;;;13.67;13.00;;;;;;;;4992756;28;51128;-59
2021/09/16 04:23:35;;;;;;;;;11.33;11.00;;;;;;;;4992117;28;51383;-60
2021/09/16 04:26:00;;;;;;;;;10.00;10.00;;;;;;;;4992013;28;51866;-61
2021/09/16 04:28:25;;;;;;;;;10.00;9.67;;;;;;;;4994239;28;51010;-60
2021/09/16 04:30:50;;;;;;;;;10.67;10.00;;;;;;;;5000365;28;50840;-60
2021/09/16 04:33:15;;;;;;;;;11.67;11.33;;;;;;;;4991374;28;51079;-60
2021/09/16 04:35:40;;;;;;;;;12.67;12.00;;;;;;;;4991782;28;51210;-61
2021/09/16 04:38:06;;;;;;;;;13.67;12.33;;;;;;;;4992262;28;51162;-59
2021/09/16 04:40:31;;;;;;;;;14.00;12.00;;;;;;;;4992001;28;50856;-63
2021/09/16 04:42:56;;;;;;;;;13.00;12.33;;;;;;;;4991866;28;50932;-60
2021/09/16 04:45:22;;;;;;;;;15.00;12.67;;;;;;;;4990876;28;51901;-60
2021/09/16 04:47:47;;;;;;;;;13.67;12.00;;;;;;;;4992196;28;51153;-59
2021/09/16 04:50:12;;;;;;;;;12.67;12.00;;;;;;;;4991564;28;50826;-59
2021/09/16 04:52:38;;;;;;;;;12.00;12.00;;;;;;;;4991986;28;51458;-59
2021/09/16 04:55:04;;;;;;;;;12.00;11.33;;;;;;;;4990197;28;52087;-59
2021/09/16 04:57:29;;;;;;;;;11.00;11.00;;;;;;;;4994804;28;50880;-59
2021/09/16 04:59:55;;;;;;;;;12.33;12.33;;;;;;;;4995841;28;51152;-59
2021/09/16 05:02:20;;;;;;;;;15.33;15.00;;;;;;;;5002288;28;52164;-59
2021/09/16 05:04:45;;;;;;;;;12.00;11.67;;;;;;;;4996572;28;51202;-60
2021/09/16 05:07:10;;;;;;;;;12.00;11.67;;;;;;;;4977261;28;51091;-60
2021/09/16 05:09:35;;;;;;;;;12.67;12.67;;;;;;;;4994774;28;51118;-61
2021/09/16 05:12:01;;;;;;;;;13.67;12.67;;;;;;;;4995697;28;51423;-60
2021/09/16 05:14:26;;;;;;;;;13.33;12.33;;;;;;;;4994407;28;51684;-60
2021/09/16 05:16:51;;;;;;;;;11.00;11.00;;;;;;;;4992091;28;51096;-60
2021/09/16 05:19:16;;;;;;;;;12.33;11.67;;;;;;;;4989968;28;51131;-60
2021/09/16 05:21:41;;;;;;;;;12.33;11.00;;;;;;;;4995538;28;51579;-60
2021/09/16 05:24:07;;;;;;;;;12.67;11.33;;;;;;;;4995330;28;51141;-60
2021/09/16 05:26:32;;;;;;;;;10.67;10.67;;;;;;;;4995412;28;51068;-60
2021/09/16 05:28:57;;;;;;;;;13.00;12.00;;;;;;;;4995468;28;50881;-60
2021/09/16 05:31:22;;;;;;;;;12.00;11.00;;;;;;;;4995268;28;51104;-61
2021/09/16 05:33:48;;;;;;;;;24.75;21.75;;;;;;;;4995387;28;51131;-60
2021/09/16 05:36:13;;;;;;;;;5.75;5.00;;;;;;;;5001872;28;50975;-60
2021/09/16 05:38:38;;;;;;;;;13.33;13.33;;;;;;;;4994903;28;51004;-60
2021/09/16 05:41:03;;;;;;;;;12.33;12.33;;;;;;;;4995264;28;51285;-61
2021/09/16 05:43:28;;;;;;;;;13.00;11.00;;;;;;;;4993838;28;51816;-61
2021/09/16 05:45:54;;;;;;;;;14.00;14.00;;;;;;;;4994587;28;51032;-60
2021/09/16 05:48:20;;;;;;;;;13.00;12.00;;;;;;;;4995150;28;51075;-61
2021/09/16 05:50:46;;;;;;;;;17.33;14.67;;;;;;;;4977773;28;51282;-61
2021/09/16 05:53:11;;;;;;;;;17.00;16.00;;;;;;;;4999772;28;51631;-60
2021/09/16 05:55:39;;;;;;;;;15.67;14.33;;;;;;;;4995277;28;50940;-61
2021/09/16 05:58:05;;;;;;;;;12.00;11.67;;;;;;;;4994756;28;50986;-59
2021/09/16 06:00:30;;;;;;;;;13.33;12.67;;;;;;;;4977489;28;51059;-59
2021/09/16 06:02:55;;;;;;;;;12.33;11.33;;;;;;;;4981195;28;52163;-59
2021/09/16 06:05:21;;;;;;;;;11.00;10.00;;;;;;;;4994047;28;51173;-58
2021/09/16 06:07:46;;;;;;;;;9.67;9.67;;;;;;;;4975726;28;51594;-58
2021/09/16 06:10:11;;;;;;;;;14.00;12.67;;;;;;;;4982078;28;51049;-59
2021/09/16 06:12:36;;;;;;;;;12.00;11.00;;;;;;;;4994131;28;52031;-59
2021/09/16 06:15:02;;;;;;;;;12.00;11.00;;;;;;;;4994771;28;51058;-57
2021/09/16 06:17:28;;;;;;;;;8.33;8.33;;;;;;;;4976048;28;51214;-58
2021/09/16 06:19:53;;;;;;;;;14.33;14.33;;;;;;;;4993777;28;51137;-58
2021/09/16 06:22:18;;;;;;;;;15.67;14.33;;;;;;;;4993630;28;51099;-58
2021/09/16 06:24:44;;;;;;;;;13.67;12.67;;;;;;;;4999741;28;51139;-58
2021/09/16 06:27:09;;;;;;;;;13.00;11.33;;;;;;;;4993896;28;51156;-58
2021/09/16 06:29:34;;;;;;;;;12.00;12.00;;;;;;;;4994069;28;51056;-58
2021/09/16 06:32:00;;;;;;;;;11.00;10.33;;;;;;;;4993634;28;51991;-58
2021/09/16 06:34:25;;;;;;;;;10.00;10.00;;;;;;;;4987553;28;51127;-60
2021/09/16 06:36:51;;;;;;;;;9.33;8.67;;;;;;;;4976368;28;51011;-59
2021/09/16 06:39:16;;;;;;;;;10.33;10.00;;;;;;;;4991798;28;51325;-58
2021/09/16 06:41:41;;;;;;;;;9.33;8.67;;;;;;;;4973977;28;52889;-58
2021/09/16 06:44:06;;;;;;;;;10.67;10.00;;;;;;;;4973914;28;51097;-59
2021/09/16 06:46:32;;;;;;;;;10.33;9.67;;;;;;;;4991284;28;51268;-59
2021/09/16 06:48:57;;;;;;;;;12.00;11.00;;;;;;;;4991434;28;51369;-59
2021/09/16 06:51:22;;;;;;;;;11.67;11.00;;;;;;;;4991517;28;51972;-58
2021/09/16 06:53:48;;;;;;;;;9.67;9.67;;;;;;;;4992912;28;50992;-59
2021/09/16 06:56:13;;;;;;;;;10.00;9.00;;;;;;;;4994148;28;50966;-61
2021/09/16 06:58:38;;;;;;;;;9.33;8.67;;;;;;;;4993958;28;51070;-58
2021/09/16 07:01:03;;;;;;;;;10.00;10.00;;;;;;;;4993601;28;50915;-60
2021/09/16 07:03:28;;;;;;;;;11.67;11.67;;;;;;;;4993823;28;50835;-60
2021/09/16 07:05:54;;;;;;;;;23.67;23.67;;;;;;;;4993416;28;51146;-60
2021/09/16 07:08:19;;;;;;;;;9.67;9.33;;;;;;;;4993443;28;52610;-60
2021/09/16 07:10:44;;;;;;;;;10.00;9.67;;;;;;;;4993182;28;51056;-58
2021/09/16 07:13:09;;;;;;;;;8.33;8.33;;;;;;;;4993423;28;51069;-58
2021/09/16 07:15:34;;;;;;;;;9.00;8.67;;;;;;;;4992941;28;50960;-58
2021/09/16 07:18:00;;;;;;;;;8.33;8.33;;;;;;;;4970314;28;50881;-60
2021/09/16 07:20:25;;;;;;;;;7.00;7.00;;;;;;;;4984837;28;50952;-58
2021/09/16 07:22:51;;;;;;;;;10.00;9.00;;;;;;;;4993102;28;51191;-60
2021/09/16 07:25:16;;;;;;;;;7.00;7.00;;;;;;;;4993414;28;50940;-59
2021/09/16 07:27:41;;;;;;;;;7.00;6.33;;;;;;;;4993055;28;51101;-60
2021/09/16 07:30:07;;;;;;;;;15.00;15.00;;;;;;;;4992966;28;51118;-59
2021/09/16 07:32:32;;;;;;;;;7.00;7.00;;;;;;;;4992765;28;51032;-59
2021/09/16 07:34:59;;;;;;;;;7.67;7.67;;;;;;;;4993428;28;51063;-60
2021/09/16 07:37:24;;;;;;;;;9.00;8.00;;;;;;;;4993036;28;51132;-59
2021/09/16 07:39:49;;;;;;;;;5.67;5.67;;;;;;;;4992591;28;50956;-59
2021/09/16 07:42:14;;;;;;;;;8.33;7.67;;;;;;;;4992832;28;51113;-60
2021/09/16 07:44:40;;;;;;;;;5.67;5.67;;;;;;;;4992929;28;51042;-60
2021/09/16 07:47:05;;;;;;;;;10.00;10.00;;;;;;;;4992191;28;51001;-60
2021/09/16 07:49:30;;;;;;;;;8.33;8.33;;;;;;;;4992897;28;51242;-59
2021/09/16 07:51:55;;;;;;;;;6.00;6.00;;;;;;;;4992498;28;50916;-60
2021/09/16 07:54:21;;;;;;;;;5.33;5.00;;;;;;;;4992921;28;50882;-60
2021/09/16 07:56:46;;;;;;;;;5.67;4.67;;;;;;;;4992262;28;51424;-59
2021/09/16 07:59:11;;;;;;;;;5.00;4.00;;;;;;;;4992678;28;52205;-58
2021/09/16 08:01:36;;;;;;;;;4.67;4.67;;;;;;;;4992395;28;51022;-59
2021/09/16 08:04:03;;;;;;;;;6.67;6.67;;;;;;;;4992084;28;51049;-60
2021/09/16 08:06:28;;;;;;;;;7.00;7.00;;;;;;;;4992881;28;50902;-59
2021/09/16 08:08:53;;;;;;;;;19.75;18.75;;;;;;;;4992258;28;52159;-59
2021/09/16 08:11:18;;;;;;;;;9.67;9.00;;;;;;;;4992336;28;51122;-61
2021/09/16 08:13:44;;;;;;;;;6.67;6.33;;;;;;;;4992417;28;50911;-58
2021/09/16 08:16:09;;;;;;;;;4.33;4.33;;;;;;;;4992429;28;50871;-59
2021/09/16 08:18:34;;;;;;;;;3.67;3.67;;;;;;;;4992459;28;51318;-58
2021/09/16 08:21:00;;;;;;;;;8.00;6.00;;;;;;;;4992634;28;51115;-61
2021/09/16 08:23:25;;;;;;;;;4.00;3.00;;;;;;;;4992296;28;50971;-59
2021/09/16 08:25:51;;;;;;;;;4.00;4.00;;;;;;;;4992470;28;51114;-59
2021/09/16 08:28:16;;;;;;;;;3.00;3.00;;;;;;;;4992212;28;50976;-59
2021/09/16 08:30:42;;;;;;;;;4.00;4.00;;;;;;;;4991920;28;51154;-60
2021/09/16 08:33:07;;;;;;;;;1.33;1.33;;;;;;;;4995212;28;51095;-59
2021/09/16 08:35:33;;;;;;;;;2.33;2.33;;;;;;;;4995741;28;51108;-58
2021/09/16 08:37:58;;;;;;;;;5.00;5.00;;;;;;;;4994985;28;51991;-56
2021/09/16 08:40:24;;;;;;;;;1.67;1.67;;;;;;;;4995463;28;50978;-59
2021/09/16 08:42:50;;;;;;;;;0.00;0.00;;;;;;;;4977108;28;50950;-59
2021/09/16 08:45:16;;;;;;;;;3.00;2.00;;;;;;;;4995751;28;51275;-59
2021/09/16 08:47:42;;;;;;;;;1.67;1.67;;;;;;;;4994912;28;52127;-59
2021/09/16 08:50:08;;;;;;;;;2.33;1.67;;;;;;;;4995651;28;50873;-59
2021/09/16 08:52:37;;;;;;;;;13.00;13.00;;;;;;;;4994844;28;50921;-58
2021/09/16 08:55:06;;;;;;;;;1.33;1.33;;;;;;;;4995855;28;51219;-59
2021/09/16 08:57:34;;;;;;;;;1.67;1.67;;;;;;;;4995304;28;51731;-59
2021/09/16 08:59:59;;;;;;;;;3.00;3.00;;;;;;;;4995778;28;50857;-59
2021/09/16 09:02:25;;;;;;;;;1.67;1.67;;;;;;;;4995438;28;50957;-59
2021/09/16 09:04:50;;;;;;;;;2.33;2.33;;;;;;;;4995287;28;51143;-60
2021/09/16 09:07:19;;;;;;;;;2.00;2.00;;;;;;;;4995520;28;51691;-59
2021/09/16 09:09:45;;;;;;;;;1.00;1.00;;;;;;;;4995271;28;51055;-59
2021/09/16 09:12:11;;;;;;;;;2.00;1.00;;;;;;;;4977678;28;51041;-59
2021/09/16 09:14:36;;;;;;;;;2.00;2.00;;;;;;;;4994870;28;50868;-58
2021/09/16 09:17:14;;;;;;;;;2.67;2.67;;;;;;;;4993006;28;52872;-58
2021/09/16 09:19:40;;;;;;;;;2.00;2.00;;;;;;;;4995307;28;50999;-59
2021/09/16 09:22:05;;;;;;;;;4.00;4.00;;;;;;;;4995087;28;50962;-59
2021/09/16 09:24:35;;;;;;;;;4.33;3.33;;;;;;;;4995387;28;51261;-59
2021/09/16 09:27:00;;;;;;;;;6.33;6.00;;;;;;;;4994428;28;52579;-59
2021/09/16 09:29:26;;;;;;;;;2.00;2.00;;;;;;;;4994750;28;50882;-60
2021/09/16 09:31:53;;;;;;;;;4.00;4.00;;;;;;;;4994806;28;51027;-60
2021/09/16 09:34:25;;;;;;;;;3.00;3.00;;;;;;;;4994975;28;51376;-60
2021/09/16 09:36:51;;;;;;;;;2.00;2.00;;;;;;;;4994746;28;51791;-60
2021/09/16 09:39:23;;;;;;;;;2.00;2.00;;;;;;;;4994375;28;50901;-59
2021/09/16 09:41:49;;;;;;;;;3.33;3.00;;;;;;;;4995214;28;51078;-60
2021/09/16 09:44:14;;;;;;;;;4.00;3.67;;;;;;;;4994020;28;51176;-60
2021/09/16 09:46:45;;;;;;;;;3.00;3.00;;;;;;;;4994073;28;51098;-59
2021/09/16 09:49:12;;;;;;;;;2.33;2.33;;;;;;;;4994012;28;51065;-60
2021/09/16 09:51:51;;;;;;;;;3.00;3.00;;;;;;;;4994512;28;51073;-60
2021/09/16 09:54:19;;;;;;;;;2.67;2.00;;;;;;;;4994373;28;50850;-60
2021/09/16 09:57:17;;;;;;;;;2.67;2.67;;;;;;;;4994338;28;50961;-59
2021/09/16 10:00:00;;;;;;;;;2.67;2.00;;;;;;;;4960763;28;51176;-60
2021/09/16 10:02:27;;;;;;;;;2.00;2.00;;;;;;;;4993430;28;50857;-60
2021/09/16 10:04:52;;;;;;;;;3.00;3.00;;;;;;;;4994182;28;51072;-59
2021/09/16 10:07:38;;;;;;;;;2.00;1.33;;;;;;;;4975922;28;53055;-60
2021/09/16 10:10:05;;;;;;;;;5.00;5.00;;;;;;;;4993489;28;50969;-59
2021/09/16 10:12:31;;;;;;;;;4.00;4.00;;;;;;;;4994141;28;51035;-60
2021/09/16 10:14:56;;;;;;;;;2.33;2.33;;;;;;;;4993989;28;51185;-60
2021/09/16 10:17:21;;;;;;;;;3.67;3.67;;;;;;;;4993441;28;51676;-60
2021/09/16 10:19:47;;;;;;;;;1.33;1.33;;;;;;;;4993926;28;50965;-60
2021/09/16 10:22:12;;;;;;;;;3.00;3.00;;;;;;;;4994127;28;50882;-60
2021/09/16 10:24:37;;;;;;;;;4.00;4.00;;;;;;;;4994002;28;51010;-60
2021/09/16 10:27:23;;;;;;;;;2.67;2.67;;;;;;;;4993861;28;51231;-61
2021/09/16 10:29:48;;;;;;;;;3.00;3.00;;;;;;;;4993559;28;50928;-58
2021/09/16 10:32:19;;;;;;;;;6.33;6.33;;;;;;;;4993562;28;50807;-58
2021/09/16 10:34:58;;;;;;;;;4.00;3.00;;;;;;;;4993760;28;51037;-59
2021/09/16 10:37:32;;;;;;;;;5.33;5.33;;;;;;;;4993049;28;51071;-59
2021/09/16 10:39:59;;;;;;;;;4.00;4.00;;;;;;;;4993057;28;51223;-60
2021/09/16 10:42:44;;;;;;;;;3.00;3.00;;;;;;;;4993647;28;51175;-59
2021/09/16 10:45:09;;;;;;;;;5.00;3.67;;;;;;;;4993752;28;51099;-59
2021/09/16 10:47:35;;;;;;;;;4.33;3.67;;;;;;;;4993154;28;52834;-58
2021/09/16 10:50:17;;;;;;;;;3.67;3.67;;;;;;;;4993473;28;51140;-60
2021/09/16 10:52:42;;;;;;;;;3.00;3.00;;;;;;;;4976379;28;51024;-60
2021/09/16 10:55:08;;;;;;;;;5.00;4.33;;;;;;;;4993085;28;51982;-58
2021/09/16 10:57:38;;;;;;;;;3.00;2.00;;;;;;;;4975512;28;51113;-59
2021/09/16 11:00:03;;;;;;;;;5.00;5.00;;;;;;;;4993320;28;51232;-61
2021/09/16 11:02:42;;;;;;;;;9.00;9.00;;;;;;;;4992960;28;51156;-59
2021/09/16 11:05:10;;;;;;;;;4.00;4.00;;;;;;;;4993489;28;50874;-59
2021/09/16 11:07:37;;;;;;;;;4.00;4.00;;;;;;;;4993068;28;51381;-59
2021/09/16 11:10:15;;;;;;;;;3.33;3.00;;;;;;;;4992689;28;51064;-60
2021/09/16 11:13:06;;;;;;;;;3.00;3.00;;;;;;;;4993055;28;51236;-60
2021/09/16 11:15:33;;;;;;;;;4.00;4.00;;;;;;;;4992603;28;51340;-59
2021/09/16 11:18:06;;;;;;;;;3.00;3.00;;;;;;;;4992539;28;52821;-59
2021/09/16 11:20:32;;;;;;;;;3.33;3.33;;;;;;;;4992970;28;51239;-59
2021/09/16 11:22:58;;;;;;;;;2.00;2.00;;;;;;;;4993255;28;51027;-60
2021/09/16 11:25:24;;;;;;;;;5.00;5.00;;;;;;;;4993112;28;51137;-59
2021/09/16 11:27:53;;;;;;;;;3.00;3.00;;;;;;;;4992875;28;52950;-60
2021/09/16 11:30:19;;;;;;;;;4.33;4.33;;;;;;;;4991798;28;51204;-58
2021/09/16 11:32:45;;;;;;;;;3.33;3.00;;;;;;;;4992570;28;50976;-60
2021/09/16 11:35:11;;;;;;;;;9.00;9.00;;;;;;;;4992706;28;51164;-60
2021/09/16 11:37:47;;;;;;;;;4.00;3.33;;;;;;;;4992107;28;50993;-60
2021/09/16 11:40:14;;;;;;;;;6.33;6.00;;;;;;;;4992341;28;50946;-61
2021/09/16 11:42:41;;;;;;;;;7.00;7.00;;;;;;;;4992991;28;50874;-60
2021/09/16 11:45:06;;;;;;;;;4.33;4.00;;;;;;;;4993017;28;51342;-59
2021/09/16 11:47:35;;;;;;;;;8.00;7.00;;;;;;;;4992108;28;51158;-60
2021/09/16 11:50:00;;;;;;;;;6.00;6.00;;;;;;;;4992677;28;50939;-60
2021/09/16 11:52:26;;;;;;;;;5.00;4.67;;;;;;;;4992308;28;51147;-60
2021/09/16 11:55:01;;;;;;;;;4.00;4.00;;;;;;;;4992928;28;51230;-60
2021/09/16 11:57:26;;;;;;;;;5.00;5.00;;;;;;;;4992576;28;51123;-60
2021/09/16 11:59:52;;;;;;;;;5.33;5.33;;;;;;;;4992089;28;51028;-60
2021/09/16 12:02:17;;;;;;;;;3.67;3.67;;;;;;;;4991585;28;51006;-60
2021/09/16 12:04:42;;;;;;;;;4.00;4.00;;;;;;;;4992371;28;51298;-59
2021/09/16 12:07:08;;;;;;;;;6.00;5.67;;;;;;;;4991031;28;51718;-60
2021/09/16 12:09:33;;;;;;;;;5.00;5.00;;;;;;;;4992119;28;51008;-61
2021/09/16 12:12:02;;;;;;;;;4.00;4.00;;;;;;;;4992475;28;50923;-59
2021/09/16 12:14:28;;;;;;;;;5.00;5.00;;;;;;;;4992489;28;51078;-59
2021/09/16 12:17:00;;;;;;;;;3.33;3.33;;;;;;;;4991334;28;51898;-59
2021/09/16 12:19:26;;;;;;;;;5.67;5.33;;;;;;;;4957914;28;51133;-59
2021/09/16 12:21:52;;;;;;;;;5.00;5.00;;;;;;;;4991860;28;51033;-60
2021/09/16 12:24:19;;;;;;;;;6.67;6.00;;;;;;;;4992602;28;51053;-60
2021/09/16 12:26:49;;;;;;;;;6.00;6.00;;;;;;;;4991477;28;51663;-59
2021/09/16 12:29:21;;;;;;;;;4.67;4.67;;;;;;;;4992052;28;51227;-60
2021/09/16 12:31:55;;;;;;;;;7.00;7.00;;;;;;;;4991417;28;51081;-60
2021/09/16 12:34:20;;;;;;;;;8.00;8.00;;;;;;;;4979822;28;51061;-59
2021/09/16 12:36:50;;;;;;;;;11.00;10.67;;;;;;;;4991354;28;51905;-58
2021/09/16 12:39:15;;;;;;;;;14.33;14.00;;;;;;;;4991486;28;51029;-59
2021/09/16 12:41:42;;;;;;;;;12.00;10.67;;;;;;;;4991190;28;50972;-59
2021/09/16 12:44:20;;;;;;;;;5.67;5.33;;;;;;;;4991864;28;51355;-60
2021/09/16 12:46:55;;;;;;;;;7.00;7.00;;;;;;;;4973587;28;54431;-60
2021/09/16 12:49:39;;;;;;;;;7.00;7.00;;;;;;;;4991398;28;50834;-59
2021/09/16 12:52:09;;;;;;;;;6.33;6.33;;;;;;;;4991196;28;51231;-59
2021/09/16 12:54:42;;;;;;;;;5.33;5.00;;;;;;;;4991924;28;51030;-59
2021/09/16 12:57:07;;;;;;;;;6.00;6.00;;;;;;;;4992078;28;52097;-60
2021/09/16 12:59:32;;;;;;;;;6.33;6.00;;;;;;;;4991741;28;51078;-60
2021/09/16 13:02:08;;;;;;;;;5.00;5.00;;;;;;;;4991223;28;50997;-60
2021/09/16 13:04:49;;;;;;;;;5.67;5.33;;;;;;;;4991580;28;51246;-63
2021/09/16 13:07:14;;;;;;;;;6.00;5.00;;;;;;;;4991327;28;52337;-61
2021/09/16 13:09:40;;;;;;;;;4.33;4.33;;;;;;;;4991530;28;50836;-60
2021/09/16 13:12:12;;;;;;;;;5.00;5.00;;;;;;;;4991718;28;50822;-60
2021/09/16 13:14:37;;;;;;;;;5.00;5.00;;;;;;;;4991649;28;51024;-59
2021/09/16 13:17:03;;;;;;;;;5.67;5.00;;;;;;;;4990781;28;51047;-58
2021/09/16 13:19:28;;;;;;;;;5.00;4.00;;;;;;;;4995052;28;50969;-60
2021/09/16 13:21:53;;;;;;;;;5.00;4.67;;;;;;;;4994753;28;50901;-60
2021/09/16 13:24:18;;;;;;;;;5.00;5.00;;;;;;;;4994852;28;50896;-61
2021/09/16 13:26:44;;;;;;;;;5.00;5.00;;;;;;;;4994591;28;51712;-60
2021/09/16 13:29:10;;;;;;;;;6.00;6.00;;;;;;;;4994609;28;50977;-60
2021/09/16 13:31:35;;;;;;;;;4.00;4.00;;;;;;;;4994872;28;50879;-60
2021/09/16 13:34:00;;;;;;;;;5.00;5.00;;;;;;;;4995321;28;51011;-60
2021/09/16 13:36:25;;;;;;;;;6.00;5.67;;;;;;;;4994607;28;51973;-60
2021/09/16 13:38:51;;;;;;;;;5.00;5.00;;;;;;;;4994318;28;50933;-58
2021/09/16 13:41:16;;;;;;;;;3.33;3.33;;;;;;;;4994438;28;51307;-60
2021/09/16 13:43:41;;;;;;;;;7.00;7.00;;;;;;;;4994611;28;51259;-60
2021/09/16 13:46:06;;;;;;;;;6.00;5.00;;;;;;;;4994149;28;51710;-59
2021/09/16 13:48:32;;;;;;;;;4.33;4.00;;;;;;;;4995140;28;51086;-60
2021/09/16 13:50:57;;;;;;;;;4.33;4.33;;;;;;;;4994417;28;50956;-60
2021/09/16 13:53:23;;;;;;;;;4.67;3.33;;;;;;;;4994634;28;51006;-59
2021/09/16 13:55:48;;;;;;;;;7.33;7.00;;;;;;;;4993661;28;51203;-60
2021/09/16 13:58:13;;;;;;;;;6.00;6.00;;;;;;;;4993934;28;51049;-60
2021/09/16 14:00:38;;;;;;;;;4.67;4.67;;;;;;;;4993941;28;51032;-59
2021/09/16 14:03:04;;;;;;;;;5.33;5.33;;;;;;;;4994275;28;51007;-59
2021/09/16 14:05:29;;;;;;;;;6.33;6.33;;;;;;;;4994243;28;51922;-59
2021/09/16 14:07:55;;;;;;;;;4.67;4.33;;;;;;;;4993697;28;51018;-60
2021/09/16 14:10:20;;;;;;;;;2.00;2.00;;;;;;;;4994184;28;51083;-60
2021/09/16 14:12:45;;;;;;;;;5.00;5.00;;;;;;;;4993299;28;51424;-59
2021/09/16 14:15:11;;;;;;;;;4.67;4.67;;;;;;;;4992226;28;51009;-59
2021/09/16 14:17:36;;;;;;;;;5.00;5.00;;;;;;;;4975374;28;51087;-59
2021/09/16 14:20:01;;;;;;;;;5.00;5.00;;;;;;;;4993935;28;50890;-60
2021/09/16 14:22:26;;;;;;;;;4.67;4.67;;;;;;;;4994135;28;50859;-59
2021/09/16 14:24:52;;;;;;;;;4.67;4.00;;;;;;;;4993436;28;51894;-59
2021/09/16 14:27:17;;;;;;;;;5.00;5.00;;;;;;;;4992993;28;50929;-59